Terminal Aerodrome Forecast
Issued by NWS

Home | Current Version | Previous Version | Text Only | Print | Product List | Glossary On
Versions: 1 2 3 4 5 6 7 8 9 10 11 12 13
000
FTUS45 KFGZ 230547
TAFSEZ
TAF
KSEZ 230547Z 2306/2406 VRB06KT 6SM SHRA OVC035
      TEMPO 2308/2312 3SM RA BR OVC015
     FM231600 24010KT P6SM VCSH BKN030 OVC050=

USA.gov is the U.S. government's official web portal to all federal, state and local government web resources and services.